Time;durP1;ratioP1;P1;durP2;ratioP2;P2;SDS_P1;SDS_P2;PMS_P1;PMS_P2;Temp;Humidity;BMP_temperature;BMP_pressure;BME280_temperature;BME280_humidity;BME280_pressure;Samples;Min_cycle;Max_cycle;Signal;HPM_P1;HPM_P2
2023/07/18 00:00:27;;;;;;;7.68;4.70;;;;;;;30.38;48.04;99011.00;2111217;28;20051;-81
2023/07/18 00:01:31;;;;;;;5.80;4.05;;;;;;;30.40;48.03;99014.31;2111234;28;20529;-80
2023/07/18 00:02:35;;;;;;;6.15;3.65;;;;;;;30.39;47.69;99009.91;2104282;28;20059;-81
2023/07/18 00:03:35;;;;;;;9.57;5.05;;;;;;;30.40;47.92;99005.28;2097335;28;20044;-81
2023/07/18 00:04:38;;;;;;;9.75;4.18;;;;;;;30.38;47.99;99008.28;2103487;28;20598;-81
2023/07/18 00:05:40;;;;;;;6.30;3.90;;;;;;;30.34;47.74;98998.13;2101631;28;20066;-82
2023/07/18 00:06:42;;;;;;;8.23;5.28;;;;;;;30.38;48.21;99004.72;2103368;28;20070;-81
2023/07/18 00:07:44;;;;;;;9.45;3.95;;;;;;;30.37;48.51;98997.59;2103016;28;20075;-81
2023/07/18 00:08:46;;;;;;;8.25;4.38;;;;;;;30.27;48.38;99001.16;2107733;28;20032;-82
2023/07/18 00:09:46;;;;;;;6.15;3.88;;;;;;;30.36;48.38;98995.97;2110412;27;20387;-81
2023/07/18 00:10:48;;;;;;;9.07;5.18;;;;;;;30.35;48.29;98995.16;2110333;28;20135;-82
2023/07/18 00:11:49;;;;;;;7.13;4.03;;;;;;;30.33;48.65;98996.50;2103674;28;20044;-83
2023/07/18 00:12:51;;;;;;;6.55;4.00;;;;;;;30.38;48.42;98994.59;2103169;28;20127;-82
2023/07/18 00:13:52;;;;;;;7.22;4.10;;;;;;;30.31;48.20;98983.09;2098880;28;20147;-82
2023/07/18 00:14:54;;;;;;;10.32;5.22;;;;;;;30.38;48.62;98994.59;2109076;27;20120;-81
2023/07/18 00:15:54;;;;;;;10.32;4.22;;;;;;;30.31;48.52;98993.22;2100729;28;20400;-82
2023/07/18 00:16:58;;;;;;;11.48;4.43;;;;;;;30.27;48.77;98995.69;2102145;28;20050;-81
2023/07/18 00:18:01;;;;;;;9.85;4.47;;;;;;;30.18;49.02;98995.38;2100186;28;20531;-82
2023/07/18 00:19:04;;;;;;;6.05;3.53;;;;;;;30.32;48.70;99001.16;2102573;28;20431;-84
2023/07/18 00:20:08;;;;;;;4.70;3.95;;;;;;;30.34;48.68;98992.66;2104883;28;20064;-81
2023/07/18 00:21:12;;;;;;;10.35;4.18;;;;;;;30.34;48.52;98992.66;2107363;28;20050;-81
2023/07/18 00:22:12;;;;;;;6.85;3.70;;;;;;;30.34;48.44;98990.78;2102829;28;20067;-81
2023/07/18 00:23:14;;;;;;;12.35;4.10;;;;;;;30.38;48.51;98991.84;2111879;28;20048;-81
2023/07/18 00:24:15;;;;;;;11.25;5.20;;;;;;;30.37;48.29;98994.84;2105081;28;20110;-81
2023/07/18 00:25:19;;;;;;;8.05;3.92;;;;;;;30.32;48.90;98994.88;2106081;27;20048;-81
2023/07/18 00:26:20;;;;;;;7.35;3.75;;;;;;;30.28;48.71;98984.47;2104616;28;20636;-81
2023/07/18 00:27:22;;;;;;;9.27;3.92;;;;;;;30.33;48.44;98991.03;2101217;28;21332;-82
2023/07/18 00:28:23;;;;;;;5.18;3.60;;;;;;;30.32;48.80;98989.41;2101188;28;20044;-84
2023/07/18 00:29:24;;;;;;;7.07;3.92;;;;;;;30.35;48.80;98986.94;2097108;28;22190;-80
2023/07/18 00:30:26;;;;;;;7.93;3.63;;;;;;;30.36;48.75;98994.03;2102180;28;20051;-81
2023/07/18 00:31:28;;;;;;;8.45;4.25;;;;;;;30.31;48.89;98987.75;2105766;28;20063;-81
2023/07/18 00:32:30;;;;;;;6.72;4.03;;;;;;;30.26;49.08;98980.38;2106138;28;20055;-81
2023/07/18 00:33:32;;;;;;;7.38;4.35;;;;;;;30.27;49.13;98992.94;2109047;28;20493;-81
2023/07/18 00:34:32;;;;;;;11.13;4.43;;;;;;;30.29;48.88;98979.81;2104220;28;20052;-81
2023/07/18 00:35:34;;;;;;;10.70;4.07;;;;;;;30.30;48.72;98988.84;2106912;28;20055;-82
2023/07/18 00:36:36;;;;;;;6.80;4.07;;;;;;;30.35;48.57;98986.94;2112046;27;20417;-80
2023/07/18 00:37:38;;;;;;;6.95;4.03;;;;;;;30.33;48.63;98980.91;2111252;27;20040;-80
2023/07/18 00:38:39;;;;;;;5.88;4.55;;;;;;;30.33;48.66;98997.31;2110692;27;20093;-81
2023/07/18 00:39:40;;;;;;;9.48;4.50;;;;;;;30.30;48.87;98986.09;2101266;28;20047;-81
2023/07/18 00:40:42;;;;;;;6.82;4.55;;;;;;;30.30;48.96;98991.59;2101641;28;20127;-81
2023/07/18 00:41:43;;;;;;;6.22;3.65;;;;;;;30.27;48.82;98988.28;2101888;28;20079;-81
2023/07/18 00:42:47;;;;;;;7.93;4.28;;;;;;;30.30;49.06;98986.94;2107578;28;20506;-81
2023/07/18 00:43:48;;;;;;;10.38;4.47;;;;;;;30.25;48.98;98986.91;2108577;28;20085;-81
2023/07/18 00:44:50;;;;;;;10.15;4.40;;;;;;;30.25;48.94;98978.72;2099773;28;20059;-81
2023/07/18 00:45:51;;;;;;;7.13;3.83;;;;;;;30.29;49.10;98979.81;2103195;28;20048;-81
2023/07/18 00:46:53;;;;;;;6.55;4.22;;;;;;;30.29;48.78;98985.28;2108031;27;20147;-81
2023/07/18 00:47:59;;;;;;;11.88;4.38;;;;;;;30.31;49.09;98983.09;2109540;27;20104;-81
2023/07/18 00:49:01;;;;;;;9.20;4.35;;;;;;;30.34;48.93;98982.56;2107364;27;20066;-83
2023/07/18 00:50:01;;;;;;;5.82;4.43;;;;;;;30.29;49.17;98982.56;2109676;27;20048;-81
2023/07/18 00:51:04;;;;;;;8.57;3.95;;;;;;;30.31;49.02;98983.09;2105851;28;20509;-81
2023/07/18 00:52:07;;;;;;;9.13;4.10;;;;;;;30.30;49.20;98981.44;2101371;28;20051;-81
2023/07/18 00:53:08;;;;;;;11.30;3.78;;;;;;;30.28;49.17;98983.63;2105594;28;20823;-81
2023/07/18 00:54:10;;;;;;;6.80;4.63;;;;;;;30.27;49.05;98980.09;2100016;28;20046;-82
2023/07/18 00:55:12;;;;;;;15.27;5.00;;;;;;;30.22;49.35;98982.00;2103613;28;20047;-80
2023/07/18 00:56:13;;;;;;;7.18;4.38;;;;;;;30.24;49.35;98977.06;2109571;27;20052;-80
2023/07/18 00:57:15;;;;;;;6.60;4.53;;;;;;;30.28;48.96;98987.22;2110598;28;20143;-82
2023/07/18 00:58:17;;;;;;;6.60;4.57;;;;;;;30.21;49.45;98978.41;2107455;28;20044;-81
2023/07/18 00:59:20;;;;;;;8.60;4.57;;;;;;;30.30;49.10;98980.63;2107105;28;20052;-80
2023/07/18 01:00:22;;;;;;;8.32;4.97;;;;;;;30.25;49.18;98976.78;2109764;27;20049;-82
2023/07/18 01:01:23;;;;;;;4.75;4.15;;;;;;;30.20;49.69;98970.47;2107001;28;20055;-81
2023/07/18 01:02:25;;;;;;;13.77;4.85;;;;;;;30.18;49.54;98978.13;2108916;28;20140;-80
2023/07/18 01:03:29;;;;;;;15.60;5.05;;;;;;;30.19;49.73;98972.38;2105990;28;20051;-81
2023/07/18 01:04:31;;;;;;;7.80;4.00;;;;;;;30.14;49.64;98974.28;2111103;27;20047;-81
2023/07/18 01:05:33;;;;;;;7.35;4.28;;;;;;;30.15;49.69;98978.69;2104484;28;20094;-80
2023/07/18 01:06:36;;;;;;;8.48;4.28;;;;;;;30.15;49.48;98975.94;2102106;28;20040;-81
2023/07/18 01:07:37;;;;;;;7.80;4.35;;;;;;;30.15;49.47;98973.22;2099722;28;20162;-81
2023/07/18 01:08:40;;;;;;;6.40;3.97;;;;;;;30.15;49.79;98970.47;2100398;28;20048;-82
2023/07/18 01:09:40;;;;;;;5.85;4.00;;;;;;;30.14;49.56;98983.31;2101547;28;20119;-80
2023/07/18 01:10:42;;;;;;;6.80;3.85;;;;;;;30.15;49.64;98975.94;2100799;28;20051;-82
2023/07/18 01:11:43;;;;;;;8.20;4.53;;;;;;;30.16;49.79;98977.59;2102640;28;20534;-81
2023/07/18 01:12:45;;;;;;;6.40;4.07;;;;;;;30.16;49.89;98980.31;2099086;28;20052;-80
2023/07/18 01:13:46;;;;;;;7.32;4.60;;;;;;;30.15;49.76;98984.16;2098760;28;20047;-81
2023/07/18 01:14:47;;;;;;;6.93;3.65;;;;;;;30.18;49.81;98983.63;2101692;28;20173;-81
2023/07/18 01:15:48;;;;;;;10.70;4.32;;;;;;;30.15;49.77;98978.69;2110434;28;20083;-80
2023/07/18 01:16:50;;;;;;;6.75;3.70;;;;;;;30.15;49.92;98984.16;2108291;27;20048;-81
2023/07/18 01:17:51;;;;;;;7.68;4.18;;;;;;;30.15;49.99;98981.41;2107062;28;20069;-82
2023/07/18 01:18:54;;;;;;;11.05;4.50;;;;;;;30.16;49.61;98978.41;2106971;28;20055;-81
2023/07/18 01:19:56;;;;;;;7.43;4.03;;;;;;;30.16;49.60;98975.66;2109261;28;20055;-81
2023/07/18 01:20:59;;;;;;;7.35;4.70;;;;;;;30.14;49.97;98977.03;2109846;28;20051;-81
2023/07/18 01:22:01;;;;;;;8.55;4.10;;;;;;;30.14;49.96;98977.03;2110589;27;20498;-81
2023/07/18 01:23:04;;;;;;;5.00;4.22;;;;;;;30.11;50.02;98977.56;2109254;28;20139;-81
2023/07/18 01:24:05;;;;;;;6.35;2.88;;;;;;;30.12;50.14;98980.03;2111905;28;20044;-81
2023/07/18 01:25:11;;;;;;;8.02;3.75;;;;;;;30.12;49.86;98980.03;2110201;28;20039;-82
2023/07/18 01:26:12;;;;;;;8.25;4.03;;;;;;;30.17;49.90;98973.75;2109327;28;20035;-81
2023/07/18 01:27:14;;;;;;;6.50;4.93;;;;;;;30.14;50.08;98980.56;2107844;28;20461;-82
2023/07/18 01:28:14;;;;;;;9.77;4.25;;;;;;;30.14;50.13;98977.03;2102538;28;20139;-81
2023/07/18 01:29:16;;;;;;;11.15;4.35;;;;;;;30.08;50.47;98978.94;2103398;28;20847;-81
2023/07/18 01:30:19;;;;;;;9.15;3.97;;;;;;;30.09;50.53;98977.84;2101224;28;20302;-81
2023/07/18 01:31:20;;;;;;;8.63;4.38;;;;;;;30.13;50.38;98981.69;2112113;28;20579;-81
2023/07/18 01:32:21;;;;;;;7.75;4.15;;;;;;;30.13;50.37;98976.22;2108674;28;20040;-81
2023/07/18 01:33:23;;;;;;;8.00;3.65;;;;;;;30.13;49.91;98986.34;2103997;28;20391;-82
2023/07/18 01:34:24;;;;;;;7.68;4.45;;;;;;;30.12;50.17;98980.03;2103549;28;20506;-81
2023/07/18 01:35:27;;;;;;;9.07;4.40;;;;;;;30.11;50.35;98967.44;2101745;28;20052;-81
2023/07/18 01:36:29;;;;;;;12.43;5.22;;;;;;;30.12;50.42;98962.81;2104967;28;20105;-81
2023/07/18 01:37:32;;;;;;;5.88;4.32;;;;;;;30.15;50.26;98970.47;2102428;28;20057;-81
2023/07/18 01:38:35;;;;;;;5.88;4.35;;;;;;;30.12;50.20;98962.81;2110582;28;20101;-81
2023/07/18 01:39:35;;;;;;;10.63;4.47;;;;;;;30.15;50.04;98967.75;2111424;28;20151;-81
2023/07/18 01:40:37;;;;;;;6.07;3.65;;;;;;;30.17;50.06;98971.00;2109896;28;20066;-81
2023/07/18 01:41:38;;;;;;;9.35;4.55;;;;;;;30.14;50.26;98960.63;2109684;28;20043;-81
2023/07/18 01:42:39;;;;;;;14.05;5.05;;;;;;;30.11;50.44;98966.63;2111521;28;20044;-81
2023/07/18 01:43:41;;;;;;;6.90;3.95;;;;;;;30.11;50.44;98967.44;2112466;28;20081;-80
2023/07/18 01:44:43;;;;;;;8.80;4.85;;;;;;;30.09;50.18;98953.25;2109258;28;20142;-81
2023/07/18 01:45:45;;;;;;;10.63;3.55;;;;;;;30.09;50.21;98952.41;2107575;28;20081;-81
2023/07/18 01:46:46;;;;;;;5.75;3.33;;;;;;;30.12;50.38;98957.34;2108282;28;20494;-81
2023/07/18 01:47:48;;;;;;;6.20;3.85;;;;;;;30.13;50.17;98948.03;2111510;28;20044;-81
2023/07/18 01:48:50;;;;;;;5.03;3.33;;;;;;;30.12;50.45;98951.88;2108747;28;20417;-82
2023/07/18 01:49:50;;;;;;;7.78;4.35;;;;;;;30.09;50.37;98947.78;2110472;28;20135;-83
2023/07/18 01:50:52;;;;;;;8.27;4.10;;;;;;;30.11;50.58;98958.41;2105663;28;20043;-81
2023/07/18 01:51:53;;;;;;;8.68;3.40;;;;;;;30.06;50.40;98949.13;2109330;28;20041;-82
2023/07/18 01:52:56;;;;;;;5.20;4.35;;;;;;;30.10;50.42;98954.06;2109599;27;20047;-81
2023/07/18 01:53:57;;;;;;;7.43;3.97;;;;;;;30.09;50.34;98963.34;2113506;28;20047;-82
2023/07/18 01:55:00;;;;;;;8.48;4.38;;;;;;;30.06;50.54;98949.13;2111804;27;20047;-81
2023/07/18 01:56:01;;;;;;;7.40;4.32;;;;;;;30.10;50.48;98957.59;2110801;28;20470;-81
2023/07/18 01:57:04;;;;;;;9.35;4.63;;;;;;;30.10;50.13;98957.59;2106569;28;20047;-81
2023/07/18 01:58:05;;;;;;;9.20;4.10;;;;;;;30.12;50.08;98962.81;2110310;28;20055;-82
2023/07/18 01:59:07;;;;;;;8.77;4.07;;;;;;;30.11;50.20;98953.75;2103496;28;20056;-82
2023/07/18 02:00:10;;;;;;;5.13;3.70;;;;;;;30.13;50.30;98953.50;2103878;28;20051;-80
2023/07/18 02:01:11;;;;;;;5.07;4.45;;;;;;;30.08;50.45;98959.78;2102925;28;20044;-81
2023/07/18 02:02:13;;;;;;;9.85;4.03;;;;;;;30.09;50.93;98944.19;2103992;28;20040;-81
2023/07/18 02:03:14;;;;;;;7.97;3.70;;;;;;;30.08;50.80;98945.28;2103129;28;20108;-81
2023/07/18 02:04:15;;;;;;;5.28;4.25;;;;;;;30.08;50.82;98945.28;2103088;28;20108;-81
2023/07/18 02:05:18;;;;;;;5.72;4.57;;;;;;;30.05;50.91;98946.66;2103072;28;20147;-81
2023/07/18 02:06:19;;;;;;;8.13;4.53;;;;;;;30.08;50.61;98950.75;2102152;28;20155;-80
2023/07/18 02:07:21;;;;;;;7.70;4.32;;;;;;;30.05;50.77;98950.22;2104316;28;20040;-82
2023/07/18 02:08:23;;;;;;;4.80;4.03;;;;;;;30.09;50.76;98949.66;2110790;27;20051;-82
2023/07/18 02:09:24;;;;;;;6.57;3.95;;;;;;;30.05;51.06;98952.94;2111136;27;20039;-81
2023/07/18 02:10:27;;;;;;;7.38;4.53;;;;;;;30.09;51.09;98955.13;2113198;27;20155;-81
2023/07/18 02:11:27;;;;;;;6.80;5.05;;;;;;;30.06;50.92;98954.59;2112035;28;20063;-81
2023/07/18 02:12:29;;;;;;;8.07;3.63;;;;;;;30.04;51.10;98943.09;2112548;27;20180;-81
2023/07/18 02:13:30;;;;;;;6.60;4.07;;;;;;;30.05;51.47;98947.47;2112939;28;21675;-81
2023/07/18 02:14:30;;;;;;;10.13;4.38;;;;;;;29.99;51.43;98942.28;2113201;28;20063;-83
2023/07/18 02:15:32;;;;;;;8.13;5.32;;;;;;;30.04;51.22;98945.84;2110849;28;20506;-81
2023/07/18 02:16:33;;;;;;;6.65;4.60;;;;;;;30.06;51.35;98940.94;2113392;27;20035;-81
2023/07/18 02:17:34;;;;;;;6.75;4.57;;;;;;;30.04;51.31;98940.38;2112472;28;20048;-82
2023/07/18 02:18:36;;;;;;;4.80;3.33;;;;;;;30.05;51.30;98952.94;2104399;27;20078;-81
2023/07/18 02:19:36;;;;;;;6.32;4.10;;;;;;;30.10;51.49;98943.94;2109575;28;20118;-81
2023/07/18 02:20:38;;;;;;;6.68;4.63;;;;;;;30.05;51.44;98941.19;2112095;27;20111;-81
2023/07/18 02:21:39;;;;;;;5.18;3.60;;;;;;;30.03;51.67;98946.94;2112457;27;20050;-81
2023/07/18 02:22:42;;;;;;;8.18;3.67;;;;;;;30.03;51.46;98940.63;2111030;28;20416;-81
2023/07/18 02:23:44;;;;;;;8.13;5.00;;;;;;;30.05;51.19;98947.47;2110969;28;20158;-81
2023/07/18 02:24:47;;;;;;;7.63;4.70;;;;;;;30.04;51.24;98950.50;2104771;28;20104;-81
2023/07/18 02:25:48;;;;;;;12.63;3.67;;;;;;;30.02;51.61;98944.47;2101358;28;20047;-81
2023/07/18 02:26:50;;;;;;;7.65;4.10;;;;;;;30.01;51.33;98942.84;2104771;28;20052;-82
2023/07/18 02:27:50;;;;;;;6.40;4.03;;;;;;;30.03;51.68;98946.94;2103217;28;20085;-82
2023/07/18 02:28:54;;;;;;;8.25;4.78;;;;;;;30.06;51.37;98940.06;2103099;28;20105;-81
2023/07/18 02:29:55;;;;;;;8.70;4.30;;;;;;;30.05;51.32;98939.25;2102208;28;20182;-82
2023/07/18 02:30:57;;;;;;;7.68;4.55;;;;;;;30.05;51.67;98941.19;2103970;28;20071;-81
2023/07/18 02:31:58;;;;;;;6.53;4.57;;;;;;;30.03;51.28;98938.75;2101997;28;20135;-81
2023/07/18 02:32:59;;;;;;;7.70;4.85;;;;;;;30.04;51.32;98945.84;2100664;28;20045;-81
2023/07/18 02:34:00;;;;;;;4.45;3.90;;;;;;;30.04;51.67;98940.38;2103896;28;20052;-81
2023/07/18 02:35:02;;;;;;;7.00;4.10;;;;;;;30.03;51.50;98937.88;2101896;28;20083;-81
2023/07/18 02:36:06;;;;;;;11.88;4.10;;;;;;;30.01;51.28;98940.91;2102842;28;20090;-83
2023/07/18 02:37:08;;;;;;;6.90;4.68;;;;;;;30.02;51.68;98937.06;2103228;28;20078;-81
2023/07/18 02:38:09;;;;;;;6.50;4.30;;;;;;;30.05;51.40;98942.00;2105419;28;20504;-84
2023/07/18 02:39:12;;;;;;;10.23;4.13;;;;;;;30.09;51.46;98944.19;2111552;28;20050;-81
2023/07/18 02:40:14;;;;;;;4.90;3.92;;;;;;;30.06;51.28;98940.06;2109815;27;20513;-82
2023/07/18 02:41:15;;;;;;;6.10;4.10;;;;;;;30.04;51.54;98937.63;2113054;28;20205;-81
2023/07/18 02:42:17;;;;;;;5.75;4.40;;;;;;;30.06;51.27;98948.28;2110300;28;20779;-83
2023/07/18 02:43:19;;;;;;;7.18;4.35;;;;;;;30.06;51.45;98940.94;2110923;28;20040;-81
2023/07/18 02:44:19;;;;;;;8.02;5.22;;;;;;;30.15;51.38;98945.84;2106102;28;20083;-82
2023/07/18 02:45:21;;;;;;;6.20;4.10;;;;;;;30.16;51.29;98939.28;2109528;27;20040;-80
2023/07/18 02:46:22;;;;;;;6.03;3.97;;;;;;;30.17;51.06;98943.66;2111503;27;20035;-81
2023/07/18 02:47:23;;;;;;;6.70;3.80;;;;;;;30.19;51.25;98941.47;2111573;28;20061;-81
2023/07/18 02:48:24;;;;;;;5.80;4.50;;;;;;;30.22;51.21;98936.28;2110181;28;20066;-81
2023/07/18 02:49:26;;;;;;;7.28;4.07;;;;;;;30.23;50.65;98937.13;2109840;28;20051;-81
2023/07/18 02:50:27;;;;;;;8.25;4.53;;;;;;;30.24;50.90;98931.38;2112740;28;20043;-81
2023/07/18 02:51:29;;;;;;;9.23;4.00;;;;;;;30.25;51.10;98941.22;2113317;27;20045;-81
2023/07/18 02:52:29;;;;;;;7.85;4.38;;;;;;;30.18;51.15;98937.91;2111733;28;20055;-81
2023/07/18 02:53:31;;;;;;;12.52;4.90;;;;;;;30.14;51.46;98941.47;2110928;28;20044;-81
2023/07/18 02:54:33;;;;;;;8.55;5.10;;;;;;;30.18;51.48;98937.91;2112232;28;20192;-81
2023/07/18 02:55:34;;;;;;;4.45;3.65;;;;;;;30.21;51.58;98947.50;2110839;27;20108;-81
2023/07/18 02:56:36;;;;;;;6.22;4.82;;;;;;;30.20;51.60;98937.63;2112756;28;20040;-83
2023/07/18 02:57:36;;;;;;;5.13;4.55;;;;;;;30.20;51.66;98943.09;2107057;28;20131;-82
2023/07/18 02:58:38;;;;;;;9.07;5.25;;;;;;;30.20;51.54;98943.09;2113392;28;20040;-80
2023/07/18 02:59:39;;;;;;;6.57;4.88;;;;;;;30.20;51.88;98949.41;2110232;27;20143;-81
2023/07/18 03:00:41;;;;;;;9.30;4.70;;;;;;;30.25;51.37;98946.69;2109869;28;20058;-81
2023/07/18 03:01:43;;;;;;;7.22;4.40;;;;;;;30.20;51.84;98949.41;2108866;28;20047;-80
2023/07/18 03:02:45;;;;;;;5.80;2.88;;;;;;;30.19;51.70;98947.75;2111203;28;20082;-80
2023/07/18 03:03:46;;;;;;;9.70;4.43;;;;;;;30.16;51.84;98950.22;2109570;28;20039;-81
2023/07/18 03:04:48;;;;;;;6.82;4.60;;;;;;;30.19;52.14;98955.16;2111559;28;20131;-81
2023/07/18 03:05:51;;;;;;;6.10;4.30;;;;;;;30.16;52.49;98952.97;2109991;28;20051;-81
2023/07/18 03:06:52;;;;;;;7.22;4.20;;;;;;;30.15;52.28;98952.16;2111899;27;20051;-81
2023/07/18 03:07:55;;;;;;;10.15;4.68;;;;;;;30.10;52.58;98959.53;2111350;27;20044;-81
2023/07/18 03:08:55;;;;;;;10.10;4.95;;;;;;;30.11;52.72;98955.69;2110201;28;20518;-80
2023/07/18 03:09:59;;;;;;;12.10;5.95;;;;;;;30.04;52.75;98948.56;2111392;28;20040;-81
2023/07/18 03:11:01;;;;;;;6.43;4.32;;;;;;;30.05;53.38;98955.69;2113103;27;20093;-81
2023/07/18 03:12:02;;;;;;;7.60;4.95;;;;;;;30.06;52.95;98953.75;2108517;27;20043;-81
2023/07/18 03:13:03;;;;;;;9.70;5.60;;;;;;;30.10;52.99;98945.84;2111634;28;20078;-81
2023/07/18 03:14:04;;;;;;;9.48;4.22;;;;;;;30.11;52.95;98948.28;2109643;28;20047;-81
2023/07/18 03:15:07;;;;;;;8.82;5.05;;;;;;;30.14;52.97;98945.00;2111010;27;20048;-81
2023/07/18 03:16:07;;;;;;;8.77;5.18;;;;;;;30.16;52.76;98951.03;2110597;28;20075;-81
2023/07/18 03:17:09;;;;;;;10.73;5.78;;;;;;;30.12;52.85;98952.69;2111967;28;20063;-81
2023/07/18 03:18:10;;;;;;;11.98;5.80;;;;;;;30.09;52.83;98941.44;2109713;28;20126;-81
2023/07/18 03:19:12;;;;;;;6.63;4.75;;;;;;;30.05;52.88;98935.72;2111322;28;20032;-82
2023/07/18 03:20:16;;;;;;;10.73;5.18;;;;;;;30.00;53.35;98944.72;2111030;28;20040;-82
2023/07/18 03:21:18;;;;;;;10.05;4.80;;;;;;;30.07;53.24;98947.22;2110859;28;20031;-81
2023/07/18 03:22:20;;;;;;;8.27;4.95;;;;;;;30.06;53.42;98949.13;2112078;28;20044;-80
2023/07/18 03:23:22;;;;;;;12.90;5.75;;;;;;;30.07;53.57;98944.47;2111504;28;20051;-80
2023/07/18 03:24:23;;;;;;;10.40;5.97;;;;;;;30.02;53.67;98947.19;2112409;28;20039;-81
2023/07/18 03:25:26;;;;;;;11.38;5.93;;;;;;;30.02;53.34;98941.72;2111767;27;20062;-81
2023/07/18 03:26:27;;;;;;;6.85;5.00;;;;;;;29.99;53.15;98940.34;2111042;28;20043;-81
2023/07/18 03:27:29;;;;;;;8.05;4.78;;;;;;;30.09;53.54;98949.66;2112563;28;20046;-80
2023/07/18 03:28:30;;;;;;;11.57;5.05;;;;;;;30.07;53.44;98952.69;2111460;28;20050;-80
2023/07/18 03:29:31;;;;;;;7.80;5.18;;;;;;;30.10;53.26;98943.94;2109980;27;20211;-80
2023/07/18 03:30:32;;;;;;;13.32;6.25;;;;;;;30.09;53.60;98946.94;2109499;28;20146;-80
2023/07/18 03:31:35;;;;;;;7.60;5.35;;;;;;;30.17;53.10;98941.75;2112450;28;20302;-80
2023/07/18 03:32:35;;;;;;;10.27;5.45;;;;;;;30.18;53.10;98940.66;2111613;28;20507;-82
2023/07/18 03:33:37;;;;;;;9.20;5.95;;;;;;;30.20;53.06;98951.31;2110593;27;20063;-81
2023/07/18 03:34:38;;;;;;;9.82;5.13;;;;;;;30.22;53.05;98949.16;2111665;28;20051;-81
2023/07/18 03:35:40;;;;;;;15.75;5.97;;;;;;;30.17;53.16;98947.22;2111329;28;20036;-81
2023/07/18 03:36:42;;;;;;;11.20;5.63;;;;;;;30.10;53.24;98954.88;2111826;27;20044;-80
2023/07/18 03:37:43;;;;;;;5.88;5.15;;;;;;;30.07;52.98;98944.47;2111217;28;20051;-80
2023/07/18 03:38:45;;;;;;;15.77;6.18;;;;;;;30.06;53.09;98943.66;2111125;27;20569;-81
2023/07/18 03:39:45;;;;;;;8.48;5.53;;;;;;;30.15;53.17;98949.41;2110196;28;20109;-81
2023/07/18 03:40:49;;;;;;;10.20;4.70;;;;;;;30.17;52.83;98946.38;2109237;28;20043;-80
2023/07/18 03:41:49;;;;;;;6.22;4.97;;;;;;;30.18;52.68;98946.13;2111827;27;20641;-80
2023/07/18 03:42:51;;;;;;;8.15;5.63;;;;;;;30.17;53.09;98938.19;2112089;27;20054;-80
2023/07/18 03:43:52;;;;;;;12.13;5.18;;;;;;;30.17;52.33;98943.66;2111879;28;20653;-80
2023/07/18 03:44:54;;;;;;;9.90;4.78;;;;;;;30.15;52.73;98945.84;2108496;28;20047;-80
2023/07/18 03:45:54;;;;;;;12.35;5.78;;;;;;;30.17;52.89;98946.38;2110422;27;20558;-81
2023/07/18 03:46:56;;;;;;;10.52;5.15;;;;;;;30.20;52.53;98948.56;2110466;28;20051;-79
2023/07/18 03:47:57;;;;;;;9.85;4.95;;;;;;;30.13;53.23;98953.50;2112063;28;20062;-82
2023/07/18 03:48:58;;;;;;;8.10;5.45;;;;;;;30.09;53.13;98946.94;2111481;27;20508;-81
2023/07/18 03:49:59;;;;;;;6.47;4.80;;;;;;;30.07;53.45;98949.94;2111073;28;20414;-81
2023/07/18 03:51:05;;;;;;;9.48;5.63;;;;;;;30.03;53.55;98955.16;2110141;27;20055;-82
2023/07/18 03:52:06;;;;;;;10.20;6.00;;;;;;;30.00;53.43;98955.66;2111293;28;20506;-81
2023/07/18 03:53:08;;;;;;;9.52;5.32;;;;;;;30.01;53.76;98954.59;2108192;28;21139;-81
2023/07/18 03:54:09;;;;;;;8.57;5.30;;;;;;;29.99;53.66;98943.09;2103181;28;20173;-81
2023/07/18 03:55:11;;;;;;;7.30;5.35;;;;;;;30.01;53.42;98951.84;2103076;28;20047;-81
2023/07/18 03:56:13;;;;;;;9.63;5.97;;;;;;;30.02;53.40;98953.50;2103048;28;20047;-81
2023/07/18 03:57:15;;;;;;;8.45;5.97;;;;;;;30.03;53.61;98948.84;2103902;28;20052;-81
2023/07/18 03:58:16;;;;;;;11.73;5.78;;;;;;;30.02;53.51;98948.03;2102831;28;20079;-82
2023/07/18 03:59:18;;;;;;;8.48;4.53;;;;;;;30.05;53.24;98941.19;2102759;28;20054;-81
2023/07/18 04:00:19;;;;;;;11.05;6.03;;;;;;;30.04;53.39;98948.56;2103325;28;20040;-81
2023/07/18 04:01:21;;;;;;;7.57;4.90;;;;;;;30.08;53.43;98954.31;2100606;28;20055;-81
2023/07/18 04:02:21;;;;;;;9.43;6.00;;;;;;;30.06;53.67;98951.03;2101882;28;20064;-81
2023/07/18 04:03:23;;;;;;;9.98;6.15;;;;;;;30.03;53.53;98952.41;2103532;28;20036;-81
2023/07/18 04:04:24;;;;;;;9.02;5.40;;;;;;;30.07;53.53;98949.94;2109295;28;20535;-81
2023/07/18 04:05:26;;;;;;;6.15;5.00;;;;;;;30.04;53.64;98954.03;2112010;28;20047;-81
2023/07/18 04:06:27;;;;;;;13.70;5.78;;;;;;;30.04;53.58;98956.78;2111499;28;20062;-81
2023/07/18 04:07:28;;;;;;;12.30;5.78;;;;;;;30.04;53.41;98955.97;2111672;28;20043;-81
2023/07/18 04:08:30;;;;;;;10.70;5.70;;;;;;;30.02;53.78;98956.22;2111520;28;20092;-82
2023/07/18 04:09:31;;;;;;;9.95;5.93;;;;;;;30.02;53.90;98956.22;2106043;27;20153;-81
2023/07/18 04:10:32;;;;;;;9.75;5.82;;;;;;;30.09;53.53;98958.72;2110547;27;20052;-81
2023/07/18 04:11:34;;;;;;;10.88;6.25;;;;;;;30.12;53.51;98958.16;2111095;27;20059;-81
2023/07/18 04:12:36;;;;;;;10.68;5.88;;;;;;;30.01;53.65;98956.50;2110433;28;20093;-83
2023/07/18 04:13:37;;;;;;;10.13;6.20;;;;;;;30.09;53.65;98960.59;2111327;28;21345;-81
2023/07/18 04:14:39;;;;;;;10.80;6.43;;;;;;;30.08;53.58;98956.22;2111078;27;20509;-82
2023/07/18 04:15:40;;;;;;;8.85;5.20;;;;;;;30.14;53.31;98960.63;2110910;27;21225;-81
2023/07/18 04:16:42;;;;;;;10.93;6.05;;;;;;;30.15;53.08;98965.81;2111121;28;20052;-81
2023/07/18 04:17:42;;;;;;;9.10;5.25;;;;;;;30.16;53.27;98969.38;2110912;27;20040;-81
2023/07/18 04:18:44;;;;;;;7.55;5.20;;;;;;;30.19;53.32;98968.81;2108345;28;20066;-81
2023/07/18 04:19:45;;;;;;;8.73;5.53;;;;;;;30.18;52.90;98972.66;2111126;27;20039;-82
2023/07/18 04:20:46;;;;;;;6.97;5.45;;;;;;;30.13;52.92;98959.78;2111764;28;20110;-81
2023/07/18 04:21:48;;;;;;;9.05;6.00;;;;;;;30.14;53.42;98966.09;2111264;28;20136;-81
2023/07/18 04:22:48;;;;;;;12.48;6.40;;;;;;;30.08;53.09;98959.78;2111467;28;20039;-81
2023/07/18 04:23:50;;;;;;;13.52;6.53;;;;;;;30.04;53.77;98967.72;2109056;27;20043;-81
2023/07/18 04:24:53;;;;;;;9.77;6.85;;;;;;;30.13;53.19;98965.25;2112161;28;20436;-81
2023/07/18 04:25:57;;;;;;;11.90;5.82;;;;;;;30.04;53.45;98967.72;2110465;27;20047;-81
2023/07/18 04:26:59;;;;;;;10.98;5.57;;;;;;;30.01;53.66;98965.53;2112137;28;20051;-83
2023/07/18 04:28:01;;;;;;;7.78;5.63;;;;;;;29.99;53.63;98967.72;2110332;27;20070;-82
2023/07/18 04:29:03;;;;;;;9.38;5.40;;;;;;;29.96;53.54;98965.53;2111537;28;20115;-81
2023/07/18 04:30:07;;;;;;;7.75;5.97;;;;;;;30.04;53.29;98978.66;2111911;27;20122;-82
2023/07/18 04:31:07;;;;;;;5.90;4.82;;;;;;;30.09;53.18;98974.28;2108123;28;20116;-82
2023/07/18 04:32:09;;;;;;;8.95;4.95;;;;;;;30.11;53.02;98972.91;2102677;28;20040;-81
2023/07/18 04:33:12;;;;;;;9.55;4.88;;;;;;;30.13;53.23;98981.69;2103387;28;20040;-81
2023/07/18 04:34:15;;;;;;;10.10;5.45;;;;;;;30.09;53.38;98980.59;2103566;28;20060;-81
2023/07/18 04:35:16;;;;;;;8.75;5.40;;;;;;;30.07;53.39;98985.50;2103228;28;20040;-82
2023/07/18 04:36:18;;;;;;;9.25;5.53;;;;;;;30.09;53.44;98982.47;2106480;28;20579;-81
2023/07/18 04:37:20;;;;;;;7.93;6.40;;;;;;;30.11;53.16;98986.59;2110704;27;20039;-82
2023/07/18 04:38:22;;;;;;;7.47;4.95;;;;;;;30.11;53.34;98992.06;2110303;28;20183;-81
2023/07/18 04:39:23;;;;;;;13.15;5.45;;;;;;;30.05;53.28;98988.50;2110469;28;20701;-81
2023/07/18 04:40:25;;;;;;;9.30;6.25;;;;;;;30.05;53.25;98983.03;2111601;27;20100;-80
2023/07/18 04:41:26;;;;;;;7.18;4.88;;;;;;;30.04;52.97;98984.13;2112432;28;20044;-81
2023/07/18 04:42:28;;;;;;;8.82;5.28;;;;;;;30.08;52.82;98983.59;2108172;28;20043;-81
2023/07/18 04:43:30;;;;;;;10.55;4.97;;;;;;;30.01;52.74;98978.38;2104095;28;20422;-81
2023/07/18 04:44:31;;;;;;;13.07;5.53;;;;;;;30.03;52.93;98987.13;2109974;28;20147;-81
2023/07/18 04:45:32;;;;;;;10.02;5.13;;;;;;;30.02;53.40;98982.75;2111883;27;20040;-82
2023/07/18 04:46:33;;;;;;;12.43;6.28;;;;;;;30.00;53.45;98984.94;2111215;27;20051;-82
2023/07/18 04:47:34;;;;;;;8.52;6.57;;;;;;;29.99;53.78;98989.59;2111490;27;20135;-81
2023/07/18 04:48:36;;;;;;;8.45;5.55;;;;;;;29.96;53.84;98987.41;2112985;28;20048;-81
2023/07/18 04:49:37;;;;;;;10.77;5.78;;;;;;;29.97;53.95;98985.47;2109428;28;20096;-81